Главная страница
METAR-TAF:

METAR-TAF

Аэропорты :

Киркенес, Норвегия

широта: 69-44N, долгота: 029-54E, высота над уровнем моря: 9 м

Текущие метеонаблюдения

Эта сводка был подготовлена 16 минут назад, в 19:20 UTC
Ветер 5 Узел от южный
Температура -9°C
Влажность 92%
Давление 1014 hPa
Видимость: 0900 м
переохлажденный туман

METAR: ENKR 191920Z 17005KT 0900 R06/P2000N R24/1800D FZFG VV003 M09/M10 Q1014 RMK WIND 731FT VRB02KT

Время: 20:36 (19:36 UTC)

Прогноз

Эта сводка был подготовлена 57 минут назад, в 18:39 UTC
Прогноз действительный с 19-го 18 UTC до 20-го 03 UTC
Ветер 5 Узел от юго-юго-восточный
Видимость: 2000 м
на высоте 300 фута
дымка
временами
С 19-го 18 UTC до 20-го 03 UTC
Видимость: 0500 м
на высоте 100 фута
переохлажденный туман
Вероятность 40%
С 19-го 18 UTC до 20-го 03 UTC
небольшая облачность на высоте 200 фута
Отдельные облака на высоте 2000 фута

TAF: ENKR 191839Z 1918/2003 16005KT 2000 BR VV003 TEMPO 1918/2003 0500 FZFG VV001 PROB40 1918/2003 FEW002 SCT020

Метеонаблюдения и прогнозы для более 4000 аэропортов (сводки METAR и TAF).

Имеющиеся станции представлены на карте желтыми и красными точками.

Чтобы увидеть название станции, наведите на нее мышь.

Затем щелкните, чтобы увидеть метеонаблюдения и метеопрогнозы.

Управление картой: чтобы увеличить масштаб, щелкните зеленые кнопки с черным крестиком; чтобы уменьшить масштаб, щелкните зеленую кнопку с тире; для просмотра соседних карт щелкайте зеленые стрелки.


METAR-TAF: